Time;durP1;ratioP1;P1;durP2;ratioP2;P2;SDS_P1;SDS_P2;PMS_P1;PMS_P2;Temp;Humidity;BMP_temperature;BMP_pressure;BME280_temperature;BME280_humidity;BME280_pressure;Samples;Min_cycle;Max_cycle;Signal;HPM_P1;HPM_P2
2021/07/12 00:00:12;;;;;;;11.25;6.22;;;19.50;94.90;;;18.97;88.74;100372.91;5029821;28;20076;-83
2021/07/12 00:02:40;;;;;;;12.85;6.28;;;19.50;95.00;;;18.96;88.84;100376.72;5012222;28;20457;-83
2021/07/12 00:05:09;;;;;;;9.43;7.10;;;19.50;95.00;;;18.95;88.95;100370.38;5029847;28;20034;-83
2021/07/12 00:07:37;;;;;;;7.88;6.10;;;19.60;95.10;;;18.95;88.92;100372.31;5029483;28;20069;-83
2021/07/12 00:10:09;;;;;;;9.50;6.00;;;19.50;95.20;;;18.94;88.83;100365.09;5029779;28;20065;-83
2021/07/12 00:12:37;;;;;;;11.95;6.32;;;19.50;95.20;;;18.94;89.07;100362.34;5011790;28;20045;-83
2021/07/12 00:15:08;;;;;;;8.80;6.57;;;19.50;95.20;;;18.94;88.95;100360.44;5011958;28;20426;-83
2021/07/12 00:17:35;;;;;;;9.25;7.00;;;19.50;95.20;;;18.94;89.10;100360.44;5000734;28;20515;-83
2021/07/12 00:20:04;;;;;;;9.00;6.68;;;19.50;95.30;;;18.94;89.06;100362.34;4988790;28;20134;-83
2021/07/12 00:22:31;;;;;;;8.82;6.43;;;19.50;95.20;;;18.93;89.17;100360.69;4990131;28;20054;-83
2021/07/12 00:24:59;;;;;;;10.20;6.60;;;19.50;95.30;;;18.94;89.13;100363.22;4990124;28;20395;-83
2021/07/12 00:27:28;;;;;;;7.75;5.95;;;19.50;95.40;;;18.92;89.12;100356.25;4989697;28;20081;-83
2021/07/12 00:29:56;;;;;;;11.35;6.90;;;19.50;95.40;;;18.91;89.18;100349.91;4990029;28;20101;-83
2021/07/12 00:32:23;;;;;;;9.05;6.75;;;19.50;95.50;;;18.93;89.28;100355.19;4990040;28;20057;-83
2021/07/12 00:34:51;;;;;;;10.30;6.60;;;19.50;95.40;;;18.92;89.35;100350.72;4989651;28;20049;-83
2021/07/12 00:37:18;;;;;;;11.75;6.60;;;19.50;95.50;;;18.92;89.52;100350.72;4972219;28;20104;-83
2021/07/12 00:39:45;;;;;;;10.80;6.63;;;19.50;95.50;;;18.90;89.53;100347.38;4988015;28;20046;-83
2021/07/12 00:42:13;;;;;;;7.85;6.70;;;19.50;95.60;;;18.89;89.62;100352.06;4989499;28;20046;-83
2021/07/12 00:44:42;;;;;;;8.13;6.28;;;19.50;95.60;;;18.88;89.57;100353.13;4989728;28;20050;-83
2021/07/12 00:47:10;;;;;;;8.55;6.85;;;19.50;95.80;;;18.89;89.51;100348.47;4988070;28;20050;-83
2021/07/12 00:49:37;;;;;;;11.30;6.82;;;19.50;95.70;;;18.89;89.60;100348.47;4972012;28;20054;-82
2021/07/12 00:52:06;;;;;;;8.27;6.43;;;19.50;95.70;;;18.88;89.83;100349.53;4972064;28;20050;-83
2021/07/12 00:54:33;;;;;;;10.93;6.40;;;19.40;95.60;;;18.86;89.65;100354.47;4989430;28;20406;-83
2021/07/12 00:57:06;;;;;;;11.90;6.63;;;19.40;95.50;;;18.84;89.46;100349.19;4971804;28;20060;-83
2021/07/12 00:59:35;;;;;;;9.18;6.15;;;19.40;95.50;;;18.82;89.54;100348.59;4972103;28;20525;-83
2021/07/12 01:02:06;;;;;;;10.80;6.53;;;19.30;95.50;;;18.81;89.27;100346.94;4971780;28;20482;-83
2021/07/12 01:04:34;;;;;;;10.30;6.33;;;19.40;95.60;;;18.81;89.40;100348.84;4989714;28;20038;-83
2021/07/12 01:07:01;;;;;;;10.10;6.40;;;19.30;95.60;;;18.80;89.26;100355.41;4989067;28;20061;-83
2021/07/12 01:09:30;;;;;;;9.48;6.18;;;19.30;95.60;;;18.77;89.21;100351.19;4971788;28;20141;-83
2021/07/12 01:12:07;;;;;;;10.98;6.72;;;19.20;95.60;;;18.78;89.35;100341.88;4971675;28;20138;-83
2021/07/12 01:14:46;;;;;;;8.93;6.65;;;19.20;95.70;;;18.75;89.20;100345.97;4989383;28;20499;-83
2021/07/12 01:18:04;;;;;;;13.13;7.00;;;19.20;95.90;;;18.75;89.30;100347.84;4976628;28;20051;-83
2021/07/12 01:21:03;;;;;;;8.10;6.57;;;19.20;96.00;;;18.72;89.36;100340.91;4971585;28;20054;-83
2021/07/12 01:24:16;;;;;;;10.70;6.78;;;19.10;96.00;;;18.70;89.48;100334.81;4989105;28;20046;-83
2021/07/12 01:27:43;;;;;;;8.40;6.28;;;19.10;96.00;;;18.68;89.36;100325.94;4988842;28;20046;-83
2021/07/12 01:30:17;;;;;;;9.40;6.82;;;19.10;96.10;;;18.66;89.29;100322.59;4987682;28;20053;-83
2021/07/12 01:33:12;;;;;;;10.48;6.47;;;19.10;96.00;;;18.64;89.29;100319.25;4971600;28;20046;-83
2021/07/12 01:35:54;;;;;;;10.02;6.45;;;19.00;95.90;;;18.64;88.93;100310.97;4971683;28;20042;-83
2021/07/12 01:38:38;;;;;;;10.27;6.72;;;19.00;95.90;;;18.62;88.98;100315.91;4971362;28;20641;-83
2021/07/12 01:41:17;;;;;;;8.63;6.25;;;19.00;96.00;;;18.58;88.88;100311.94;4971423;28;20057;-83
2021/07/12 01:43:55;;;;;;;10.48;6.47;;;19.00;96.00;;;18.57;88.83;100313.03;4971414;28;20113;-83
2021/07/12 01:46:32;;;;;;;12.25;6.70;;;19.00;95.90;;;18.55;88.67;100309.69;4971123;28;20074;-83
2021/07/12 01:49:12;;;;;;;13.38;6.43;;;18.90;95.90;;;18.53;88.52;100309.91;4971488;28;20109;-83
2021/07/12 01:51:45;;;;;;;;;;;18.90;95.90;;;18.52;88.62;100311.00;4988680;28;20585;-83
2021/07/12 01:54:22;;;;;;;;;;;18.90;96.00;;;18.51;88.41;100297.47;4975936;28;20016;-83
2021/07/12 01:56:57;;;;;;;;;;;18.80;95.80;;;18.49;88.51;100299.63;4975361;28;20362;-83
2021/07/12 01:59:34;;;;;;;;;;;18.80;95.80;;;18.47;88.39;100296.28;4992024;28;19921;-83
2021/07/12 02:02:07;;;;;;;;;;;18.80;95.90;;;18.46;88.46;100294.59;4975615;28;19926;-83
2021/07/12 02:04:45;;;;;;;;;;;18.80;95.90;;;18.45;88.34;100290.16;4993476;28;19922;-82
2021/07/12 02:07:13;;;;;;;;;;;18.80;95.90;;;18.42;88.30;100287.91;4992796;28;19992;-83
2021/07/12 02:09:43;;;;;;;;;;;18.80;95.60;;;18.41;88.31;100277.94;4994106;28;19926;-83
2021/07/12 02:12:14;;;;;;;;;;;18.80;95.60;;;18.40;88.30;100281.78;4994873;28;19933;-83
2021/07/12 02:14:47;;;;;;;;;;;18.70;95.60;;;18.39;88.23;100277.34;4994968;28;20298;-83
2021/07/12 02:17:18;;;;;;;;;;;18.70;95.50;;;18.38;88.04;100278.44;4994334;28;19921;-82
2021/07/12 02:19:48;;;;;;;;;;;18.70;95.40;;;18.36;87.91;100282.25;4994982;28;20011;-83
2021/07/12 02:22:17;;;;;;;;;;;18.70;95.40;;;18.34;87.80;100278.91;4994659;28;20028;-83
2021/07/12 02:24:57;;;;;;;;;;;18.70;95.30;;;18.34;87.56;100278.09;4994915;28;19925;-83
2021/07/12 02:27:25;;;;;;;;;;;18.60;95.10;;;18.30;87.88;100274.97;4994557;28;19925;-83
2021/07/12 02:29:54;;;;;;;;;;;18.70;95.30;;;18.29;87.65;100277.97;4994533;28;19921;-82
2021/07/12 02:32:23;;;;;;;;;;;18.60;95.10;;;18.29;87.88;100281.53;4994736;28;19925;-83
2021/07/12 02:34:53;;;;;;;;;;;18.60;95.10;;;18.29;87.53;100286.22;4994460;28;19995;-83
2021/07/12 02:37:21;;;;;;;;;;;18.60;95.20;;;18.29;87.40;100283.47;4994322;28;20381;-83
2021/07/12 02:39:49;;;;;;;;;;;18.60;95.20;;;18.27;87.62;100291.16;4994349;28;20044;-82
2021/07/12 02:42:18;;;;;;;;;;;18.50;95.10;;;18.26;87.30;100284.81;4994472;28;20385;-82
2021/07/12 02:44:49;;;;;;;;;;;18.50;95.20;;;18.24;87.20;100275.94;5011971;28;20428;-82
2021/07/12 02:47:18;;;;;;;;;;;18.50;95.20;;;18.23;87.24;100274.25;4994271;28;20006;-82
2021/07/12 02:49:46;;;;;;;;;;;18.50;95.20;;;18.23;87.10;100276.19;4994155;28;19929;-82
2021/07/12 02:52:23;;;;;;;;;;;18.40;95.00;;;18.19;86.93;100275.81;5026058;23;20452;-78
2021/07/12 02:54:55;;;;;;;;;;;18.40;94.90;;;18.18;87.01;100276.88;5013811;28;19924;-78
2021/07/12 02:57:23;;;;;;;;;;;18.40;94.90;;;18.15;86.76;100271.88;5013562;28;20407;-78
2021/07/12 02:59:51;;;;;;;;;;;18.40;94.90;;;18.12;86.61;100273.19;5013650;28;20400;-78
2021/07/12 03:02:18;;;;;;;;;;;18.30;94.90;;;18.10;86.55;100269.81;5012094;28;19959;-79
2021/07/12 03:04:46;;;;;;;;;;;18.30;94.90;;;18.08;86.58;100266.47;5010979;28;19929;-78
2021/07/12 03:07:18;;;;;;;;;;;18.30;95.00;;;18.07;86.77;100269.50;5011317;28;19925;-78
2021/07/12 03:09:48;;;;;;;;;;;18.30;95.10;;;18.06;86.74;100267.81;5010588;28;19929;-78
2021/07/12 03:12:23;;;;;;;;;;;18.20;95.00;;;18.02;86.55;100261.09;5011432;28;19925;-78
2021/07/12 03:14:58;;;;;;;;;;;18.20;95.00;;;18.00;86.62;100264.09;5010202;28;19921;-78
2021/07/12 03:17:28;;;;;;;;;;;18.20;95.10;;;18.01;86.71;100265.78;4993313;28;20481;-78
2021/07/12 03:19:57;;;;;;;;;;;18.20;95.00;;;18.01;86.56;100265.78;5011472;28;19932;-78
2021/07/12 03:22:26;;;;;;;;;;;18.20;94.90;;;18.00;86.44;100257.75;4993480;28;20386;-78
2021/07/12 03:24:57;;;;;;;;;;;18.20;94.90;;;18.00;86.37;100263.28;5009998;28;20019;-78
2021/07/12 03:27:24;;;;;;;;;;;18.20;94.90;;;17.96;86.26;100260.97;4993387;28;19932;-78
2021/07/12 03:29:54;;;;;;;;;;;18.20;94.90;;;17.95;86.26;100262.06;5011067;28;19926;-78
2021/07/12 03:32:23;;;;;;;;;;;18.20;94.90;;;17.96;86.22;100251.91;5011107;28;19932;-78
2021/07/12 03:34:54;;;;;;;;;;;18.20;94.80;;;17.94;86.30;100246.63;5009723;28;19991;-78
2021/07/12 03:37:24;;;;;;;;;;;18.20;94.70;;;17.95;86.22;100245.56;5009494;28;20683;-78
2021/07/12 03:39:51;;;;;;;;;;;18.20;94.60;;;17.93;86.14;100239.47;5011014;28;19957;-78
2021/07/12 03:42:21;;;;;;;;;;;18.20;94.70;;;17.92;86.23;100235.00;5011404;28;19929;-78
2021/07/12 03:44:52;;;;;;;;;;;18.20;94.70;;;17.92;86.30;100237.75;4993223;28;19976;-78
2021/07/12 03:47:26;;;;;;;;;;;18.20;94.60;;;17.93;86.34;100241.34;5010724;28;19929;-78
2021/07/12 03:49:54;;;;;;;;;;;18.20;94.70;;;17.93;86.47;100238.59;5009349;28;19925;-78
2021/07/12 03:52:23;;;;;;;;;;;18.20;94.70;;;17.92;86.45;100234.19;5010782;28;19932;-78
2021/07/12 03:54:50;;;;;;;;;;;18.20;94.60;;;17.90;86.55;100231.66;5010815;28;20016;-78
2021/07/12 03:57:17;;;;;;;;;;;18.20;94.60;;;17.89;86.58;100229.97;5008956;28;20438;-78
2021/07/12 03:59:45;;;;;;;;;;;18.30;94.70;;;17.92;86.65;100234.19;5010775;28;19929;-78
2021/07/12 04:02:12;;;;;;;;;;;18.30;94.60;;;17.91;86.64;100232.50;5010328;28;19968;-82
2021/07/12 04:04:39;;;;;;;;;;;18.30;94.40;;;17.91;86.59;100233.31;5010613;28;19979;-80
2021/07/12 04:07:06;;;;;;;;;;;18.30;94.30;;;17.92;86.86;100228.69;5010116;28;20369;-76
2021/07/12 04:09:33;;;;;;;;;;;18.40;94.30;;;17.90;86.88;100231.66;5010681;28;20330;-75
2021/07/12 04:12:01;;;;;;;;;;;18.40;94.30;;;17.91;86.95;100235.25;5010373;28;20397;-75
2021/07/12 04:14:29;;;;;;;;;;;18.40;94.40;;;17.90;87.21;100228.91;5010189;28;20031;-75
2021/07/12 04:16:57;;;;;;;;;;;18.40;94.30;;;17.92;87.31;100226.75;5008006;28;20003;-75
2021/07/12 04:19:24;;;;;;;;;;;18.50;94.50;;;17.93;87.47;100224.81;4999304;28;19930;-76
2021/07/12 04:21:51;;;;;;;;;;;18.50;94.50;;;17.96;87.43;100219.69;4989128;28;19944;-75
2021/07/12 04:24:18;;;;;;;;;;;18.50;94.60;;;17.96;87.65;100219.69;4990576;28;19922;-75
2021/07/12 04:26:45;;;;;;;;;;;18.60;94.50;;;17.98;87.65;100217.53;4990419;28;19965;-75
2021/07/12 04:29:12;;;;;;;;;;;18.60;94.50;;;18.01;87.80;100215.34;4990592;28;19972;-75
2021/07/12 04:31:39;;;;;;;;;;;18.60;94.40;;;18.02;87.72;100211.53;4990614;28;19929;-75
2021/07/12 04:34:08;;;;;;;;;;;18.70;94.50;;;18.03;88.20;100218.72;4990317;28;19930;-75
2021/07/12 04:36:35;;;;;;;;;;;18.70;94.40;;;18.04;88.07;100214.91;4990185;28;20346;-75
2021/07/12 04:39:02;;;;;;;;;;;18.80;94.30;;;18.05;88.17;100213.78;4990208;28;19984;-75
2021/07/12 04:41:29;;;;;;;;;;;18.80;94.30;;;18.06;88.21;100230.09;4990280;28;19922;-75
2021/07/12 04:43:56;;;;;;;;;;;18.80;94.30;;;18.08;88.34;100219.66;4988903;28;19932;-75
2021/07/12 04:46:23;;;;;;;;;;;18.80;94.20;;;18.09;88.50;100226.84;4988504;28;20349;-74
2021/07/12 04:48:50;;;;;;;;;;;18.90;94.10;;;18.12;88.37;100228.28;4972461;28;19930;-75
2021/07/12 04:51:19;;;;;;;;;;;19.00;93.80;;;18.15;88.55;100233.31;4989899;28;19960;-74
2021/07/12 04:53:46;;;;;;;;;;;19.10;93.70;;;18.17;88.49;100225.66;4972527;28;19976;-75
2021/07/12 04:56:13;;;;;;;;;;;19.20;93.30;;;18.21;88.45;100229.59;4989629;28;20349;-75
2021/07/12 04:58:44;;;;;;;;;;;19.30;93.10;;;18.24;88.64;100225.50;4990237;28;19968;-75
2021/07/12 05:01:11;;;;;;;;;;;19.40;92.90;;;18.27;88.33;100225.84;4989862;28;20036;-75
2021/07/12 05:03:39;;;;;;;;;;;19.40;92.30;;;18.29;88.43;100226.44;4990008;28;19922;-74
2021/07/12 05:06:06;;;;;;;;;;;19.50;92.30;;;18.33;88.29;100218.53;4989840;28;19960;-75
2021/07/12 05:08:34;;;;;;;;;;;19.50;92.30;;;18.35;88.65;100208.97;4989853;28;19987;-75
2021/07/12 05:11:01;;;;;;;;;;;19.60;91.90;;;18.36;88.61;100210.63;4972135;28;20353;-75
2021/07/12 05:13:30;;;;;;;;;;;19.60;91.70;;;18.41;88.73;100214.56;4997808;28;20024;-74
2021/07/12 05:15:57;;;;;;;;;;;19.70;91.90;;;18.42;88.66;100214.31;5008642;28;20312;-75
2021/07/12 05:18:24;;;;;;;;;;;19.80;91.60;;;18.45;88.74;100196.47;4990947;28;20392;-74
2021/07/12 05:20:52;;;;;;;;;;;19.80;91.30;;;18.48;88.67;100204.25;5008127;28;20305;-74
2021/07/12 05:23:19;;;;;;;;;;;19.90;91.20;;;18.50;88.49;100197.41;5009090;28;19921;-75
2021/07/12 05:25:47;;;;;;;;;;;19.90;90.80;;;18.54;88.41;100197.75;5009273;28;19975;-74
2021/07/12 05:28:14;;;;;;;;;;;20.00;90.60;;;18.56;88.67;100198.34;4991122;28;20748;-74
2021/07/12 05:30:42;;;;;;;;;;;20.10;90.90;;;18.58;88.76;100198.94;5008980;28;20325;-74
2021/07/12 05:33:10;;;;;;;;;;;20.20;90.50;;;18.61;88.90;100198.44;4991364;28;19963;-74
2021/07/12 05:35:37;;;;;;;;;;;20.20;90.30;;;18.63;88.77;100196.28;5009040;28;19932;-74
2021/07/12 05:38:05;;;;;;;;;;;20.30;90.20;;;18.66;88.86;100194.97;5008307;28;20039;-74
2021/07/12 05:40:32;;;;;;;;;;;20.40;90.00;;;18.69;88.64;100195.28;5008760;28;19929;-75
2021/07/12 05:43:00;;;;;;;;;;;20.40;89.30;;;18.72;88.44;100189.28;5004879;28;20452;-75
2021/07/12 05:45:28;;;;;;;;;;;20.40;89.50;;;18.75;88.44;100185.19;5007571;28;20034;-75
2021/07/12 05:47:55;;;;;;;;;;;20.50;89.20;;;18.78;88.37;100178.38;5015776;28;19933;-76
2021/07/12 05:50:22;;;;;;;;;;;20.60;89.10;;;18.80;88.41;100178.97;5028430;28;20338;-75
2021/07/12 05:52:49;;;;;;;;;;;20.60;88.90;;;18.84;88.24;100180.16;5028347;28;20023;-75
2021/07/12 05:55:16;;;;;;;;;;;20.70;88.70;;;18.88;88.64;100186.84;5027483;28;19948;-75
2021/07/12 05:57:43;;;;;;;;;;;20.80;88.60;;;18.94;88.16;100194.13;5010286;28;20071;-75
2021/07/12 06:00:13;;;;;;;;;;;21.20;87.10;;;18.99;88.05;100194.22;5010690;28;19929;-75
2021/07/12 06:02:42;;;;;;;;;;;21.70;85.30;;;19.06;87.52;100194.91;5027907;28;19924;-75
2021/07/12 06:05:10;;;;;;;;;;;22.00;83.30;;;19.15;87.27;100192.56;5028628;28;20381;-75
2021/07/12 06:07:38;;;;;;;;;;;22.40;82.60;;;19.25;87.34;100191.94;5028187;28;19931;-75
2021/07/12 06:10:06;;;;;;;;;;;22.70;80.90;;;19.33;87.36;100188.75;5010680;28;20393;-75
2021/07/12 06:12:33;;;;;;;;;;;22.80;80.50;;;19.42;86.95;100191.91;5028552;28;19929;-75
2021/07/12 06:15:00;;;;;;;;;;;23.00;80.00;;;19.52;86.58;100187.41;5028276;28;20550;-76
2021/07/12 06:17:29;;;;;;;;;;;23.30;79.20;;;19.61;85.92;100184.19;5010677;28;19925;-75
2021/07/12 06:19:56;;;;;;;;;;;23.50;78.00;;;19.71;85.82;100184.38;5008626;28;20357;-76
2021/07/12 06:22:23;;;;;;;;;;;23.80;77.60;;;19.81;86.03;100181.78;5008570;28;20460;-75
2021/07/12 06:24:50;;;;;;;;;;;24.10;76.20;;;19.89;85.85;100186.84;4990729;28;19925;-75
2021/07/12 06:27:17;;;;;;;;;;;24.20;75.20;;;19.96;84.95;100185.88;5008120;28;19922;-76
2021/07/12 06:29:44;;;;;;;;;;;24.30;75.10;;;20.03;85.25;100184.59;5008465;28;19926;-75
2021/07/12 06:32:11;;;;;;;;;;;24.40;74.40;;;20.10;85.55;100176.94;5008368;28;19975;-75
2021/07/12 06:34:40;;;;;;;;;;;24.60;74.30;;;20.16;85.44;100177.81;5008480;28;19929;-76
2021/07/12 06:37:07;;;;;;;;;;;24.70;73.50;;;20.24;85.35;100177.41;5008143;28;19925;-75
2021/07/12 06:39:34;;;;;;;;;;;24.70;73.20;;;20.27;84.22;100176.88;5010564;28;19972;-75
2021/07/12 06:42:02;;;;;;;;;;;24.60;72.80;;;20.34;84.14;100181.38;4993611;28;19925;-75
2021/07/12 06:44:29;;;;;;;;;;;24.60;73.50;;;20.37;83.87;100187.25;4998088;28;19924;-75
2021/07/12 06:46:57;;;;;;;;;;;24.50;74.10;;;20.41;82.95;100173.72;5013535;28;19932;-75
2021/07/12 06:49:25;;;;;;;;;;;24.40;73.30;;;20.45;83.09;100183.19;5029760;28;19925;-76
2021/07/12 06:51:53;;;;;;;;;;;24.30;74.10;;;20.48;82.77;100177.94;5031607;28;19967;-76
2021/07/12 06:54:20;;;;;;;;;;;24.30;73.90;;;20.52;82.23;100172.72;5027713;28;19971;-76
2021/07/12 06:56:47;;;;;;;;;;;24.30;73.70;;;20.56;82.19;100173.06;5011851;28;19943;-75
2021/07/12 06:59:14;;;;;;;;;;;24.30;73.90;;;20.59;81.99;100178.91;5011871;28;19925;-75
2021/07/12 07:01:44;;;;;;;;;;;24.20;74.30;;;20.60;83.47;100180.63;5003283;28;19988;-75
2021/07/12 07:04:12;;;;;;;;;;;24.20;75.70;;;20.63;83.07;100179.25;5011801;28;20031;-76
2021/07/12 07:06:39;;;;;;;;;;;24.10;75.20;;;20.65;82.33;100177.06;5011097;28;20384;-76
2021/07/12 07:09:07;;;;;;;;;;;24.10;74.10;;;20.68;82.10;100180.16;5011546;28;20342;-76
2021/07/12 07:11:34;;;;;;;;;;;24.10;75.40;;;20.71;81.36;100181.53;5011367;28;20271;-77
2021/07/12 07:14:02;;;;;;;;;;;24.10;74.40;;;20.75;81.73;100174.41;5011545;28;19931;-77
2021/07/12 07:16:29;;;;;;;;;;;24.10;75.10;;;20.81;81.82;100169.75;5011305;28;19967;-77
2021/07/12 07:18:56;;;;;;;;;;;24.20;74.90;;;20.87;81.80;100163.19;5011210;28;20039;-77
2021/07/12 07:21:23;;;;;;;;;;;24.20;75.00;;;20.90;81.83;100157.13;5011426;28;19926;-77
2021/07/12 07:23:50;;;;;;;;;;;24.20;74.90;;;20.92;82.08;100149.41;5009771;28;20028;-77
2021/07/12 07:26:19;;;;;;;;;;;24.20;75.30;;;20.96;80.22;100150.56;5011085;28;19921;-77
2021/07/12 07:28:46;;;;;;;;;;;24.20;74.70;;;20.95;80.01;100148.88;5011142;28;19921;-77
2021/07/12 07:31:13;;;;;;;;;;;24.10;74.30;;;20.99;80.37;100150.03;5011197;28;20016;-77
2021/07/12 07:33:40;;;;;;;;;;;24.10;74.80;;;21.00;80.54;100153.63;5011076;28;20345;-77
2021/07/12 07:36:08;;;;;;;;;;;24.10;75.30;;;21.06;83.52;100144.28;5010984;28;19968;-77
2021/07/12 07:38:35;;;;;;;;;;;24.10;77.10;;;21.09;81.12;100152.03;5011202;28;20388;-77
2021/07/12 07:41:02;;;;;;;;;;;24.10;73.80;;;21.09;79.93;100152.91;5010897;28;19980;-77
2021/07/12 07:43:31;;;;;;;;;;;24.10;74.20;;;21.14;80.38;100148.50;5009486;28;19929;-77
2021/07/12 07:45:58;;;;;;;;;;;24.10;75.40;;;21.19;79.53;100142.97;5009995;28;19965;-77
2021/07/12 07:48:25;;;;;;;;;;;24.10;74.80;;;21.26;77.58;100138.06;5010866;28;19925;-77
2021/07/12 07:50:52;;;;;;;;;;;24.10;73.00;;;21.28;78.19;100130.31;5009035;28;19925;-77
2021/07/12 07:53:19;;;;;;;;;;;24.10;74.50;;;21.31;78.69;100128.97;5010699;28;19979;-77
2021/07/12 07:55:46;;;;;;;;;;;24.10;74.70;;;21.36;76.55;100127.09;5010808;28;20014;-77
2021/07/12 07:58:13;;;;;;;;;;;24.10;73.30;;;21.38;78.32;100133.19;5010310;28;20635;-77
2021/07/12 08:00:42;;;;;;;;;;;24.10;74.20;;;21.39;78.16;100126.53;5009883;28;20382;-77
2021/07/12 08:03:09;;;;;;;;;;;24.20;74.10;;;21.42;78.27;100126.03;5010459;28;19995;-77
2021/07/12 08:05:36;;;;;;;;;;;24.20;74.20;;;21.44;78.01;100115.53;5010678;28;19929;-76
2021/07/12 08:08:04;;;;;;;;;;;24.10;74.50;;;21.50;78.35;100110.03;5009897;28;20024;-77
2021/07/12 08:10:31;;;;;;;;;;;24.20;75.10;;;21.46;76.13;100113.34;5025320;28;20459;-77
2021/07/12 08:12:58;;;;;;;;;;;24.10;72.50;;;21.45;75.48;100108.06;5009128;28;20432;-77
2021/07/12 08:15:25;;;;;;;;;;;24.20;70.60;;;21.44;76.91;100101.69;5008928;28;20420;-77
2021/07/12 08:17:54;;;;;;;;;;;24.20;73.50;;;21.53;76.48;100109.50;5010252;28;19925;-76
2021/07/12 08:20:22;;;;;;;;;;;24.20;73.60;;;21.51;74.02;100106.16;5010108;28;20007;-77
2021/07/12 08:22:51;;;;;;;;;;;24.20;70.60;;;21.47;74.61;100106.69;5009978;28;19978;-77
2021/07/12 08:25:19;;;;;;;;;;;24.20;72.10;;;21.48;74.33;100108.38;5009032;28;19931;-77
2021/07/12 08:27:47;;;;;;;;;;;24.20;72.20;;;21.53;74.76;100106.72;5009595;28;19921;-77
2021/07/12 08:30:15;;;;;;;;;;;24.30;72.40;;;21.53;73.66;100098.41;5010072;28;19961;-78
2021/07/12 08:32:43;;;;;;;;;;;24.30;69.90;;;21.58;71.98;100095.69;4991976;28;20340;-78
2021/07/12 08:35:13;;;;;;;;;;;24.40;70.40;;;21.63;72.52;100081.88;5010150;28;19929;-78
2021/07/12 08:37:40;;;;;;;;;;;24.30;69.90;;;21.65;72.46;100086.03;5009599;28;19932;-78
2021/07/12 08:40:09;;;;;;;;;;;24.40;70.00;;;21.69;73.18;100082.75;5009874;28;19925;-79
2021/07/12 08:42:36;;;;;;;;;;;24.40;68.40;;;21.69;72.05;100086.34;4992013;28;20011;-78
2021/07/12 08:45:05;;;;;;;;;;;24.30;70.00;;;21.70;71.54;100085.22;5010059;28;19968;-78
2021/07/12 08:47:32;;;;;;;;;;;24.40;69.50;;;21.74;71.91;100082.75;5009761;28;19925;-78
2021/07/12 08:49:59;;;;;;;;;;;24.40;70.10;;;21.72;71.96;100074.69;5009547;28;20372;-78
2021/07/12 08:52:27;;;;;;;;;;;24.50;69.30;;;21.74;71.33;100083.59;5009848;28;19960;-78
2021/07/12 08:54:57;;;;;;;;;;;24.50;69.00;;;21.80;71.47;100076.13;5009616;28;20016;-79
2021/07/12 08:57:24;;;;;;;;;;;24.60;69.20;;;21.80;71.67;100079.75;4991818;28;19976;-79
2021/07/12 08:59:55;;;;;;;;;;;24.60;68.90;;;21.84;72.31;100072.56;4991425;28;19929;-79
2021/07/12 09:02:23;;;;;;;;;;;24.60;69.50;;;21.82;70.38;100072.00;4990856;28;19929;-79
2021/07/12 09:04:53;;;;;;;;;;;24.60;66.90;;;21.81;70.73;100067.53;5009568;28;19940;-79
2021/07/12 09:07:22;;;;;;;;;;;24.40;67.70;;;21.82;70.14;100057.31;5009102;28;19925;-79
2021/07/12 09:10:01;;;;;;;;;;;24.50;66.80;;;21.78;69.28;100062.56;5009579;28;19976;-77
2021/07/12 09:12:40;;;;;;;;;;;24.40;67.50;;;21.79;68.57;100060.63;4990971;28;19952;-77
2021/07/12 09:15:09;;;;;;;;;;;24.40;66.90;;;21.77;69.70;100058.09;5009486;28;19959;-78
2021/07/12 09:17:38;;;;;;;;;;;24.30;68.10;;;21.80;70.87;100049.28;5008849;28;19925;-78
2021/07/12 09:20:07;;;;;;;;;;;24.40;69.50;;;21.78;69.29;100040.41;5009387;28;20416;-78
2021/07/12 09:22:36;;;;;;;;;;;24.30;68.70;;;21.78;67.95;100031.22;5008864;28;20204;-77
2021/07/12 09:25:08;;;;;;;;;;;24.40;67.90;;;21.77;66.63;100033.19;5028294;23;20020;-83
2021/07/12 09:27:37;;;;;;;;;;;24.40;65.10;;;21.76;66.59;100031.53;5008623;28;19925;-83
2021/07/12 09:30:07;;;;;;;;;;;24.30;65.10;;;21.78;66.61;100034.84;5021070;28;20371;-83
2021/07/12 09:32:35;;;;;;;;;;;24.30;65.10;;;21.78;67.67;100026.56;5029063;28;19921;-83
2021/07/12 09:35:06;;;;;;;;;;;24.30;65.80;;;21.86;66.64;100036.28;5020794;28;20023;-83
2021/07/12 09:37:35;;;;;;;;;;;24.30;66.80;;;21.91;68.19;100040.97;5009179;28;19991;-83
2021/07/12 09:40:05;;;;;;;;;;;24.40;67.40;;;21.98;70.10;100045.16;5009123;28;20424;-83
2021/07/12 09:42:32;;;;;;;;;;;24.50;68.80;;;22.06;69.83;100039.09;5009311;28;20000;-83
2021/07/12 09:45:01;;;;;;;;;;;24.60;67.90;;;22.04;66.56;100035.75;5008916;28;19921;-83
2021/07/12 09:47:31;;;;;;;;;;;24.70;64.80;;;22.12;65.75;100034.38;5008878;28;19929;-81
2021/07/12 09:50:02;;;;;;;;;;;24.80;64.90;;;22.12;66.30;100034.38;5009237;28;19964;-81
2021/07/12 09:52:38;;;;;;;;;;;24.80;65.30;;;22.12;66.26;100022.47;5008993;28;19967;-81
2021/07/12 09:55:07;;;;;;;;;;;24.80;64.50;;;22.20;67.89;100024.69;5009339;28;19968;-82
2021/07/12 09:57:34;;;;;;;;;;;24.90;65.90;;;22.17;67.01;100022.50;5008593;28;20007;-81
2021/07/12 10:00:04;;;;;;;;;;;24.90;65.30;;;22.19;66.25;100017.50;5009194;28;19926;-83
2021/07/12 10:02:40;;;;;;;;;;;24.90;65.20;;;22.16;65.32;100013.34;5008929;28;19921;-83
2021/07/12 10:05:09;;;;;;;;;;;24.90;64.40;;;22.16;63.20;100002.28;5009053;28;19932;-80
2021/07/12 10:07:37;;;;;;;;;;;24.90;62.20;;;22.18;65.18;100004.75;5008907;28;19969;-81
2021/07/12 10:10:08;;;;;;;;;;;24.80;63.80;;;22.32;67.73;100010.66;5008510;28;20374;-80
2021/07/12 10:12:36;;;;;;;;;;;24.90;66.40;;;22.28;67.02;100004.00;5008757;28;20032;-82
2021/07/12 10:15:03;;;;;;;;;;;24.80;66.30;;;22.18;66.02;100000.06;5011582;28;20422;-82
2021/07/12 10:17:30;;;;;;;;;;;24.80;64.50;;;22.13;65.45;100000.03;5012387;28;19961;-80
2021/07/12 10:19:57;;;;;;;;;;;24.70;63.70;;;22.10;65.29;99997.81;5012203;28;20024;-80
2021/07/12 10:22:25;;;;;;;;;;;24.70;63.70;;;22.12;64.30;100000.31;5012456;28;20465;-78
2021/07/12 10:24:53;;;;;;;;;;;24.70;64.80;;;22.13;66.35;100000.03;5009624;28;19925;-77
2021/07/12 10:27:23;;;;;;;;;;;24.70;65.30;;;22.14;67.56;99998.09;5011718;28;19925;-77
2021/07/12 10:29:51;;;;;;;;;;;24.70;65.30;;;22.09;64.88;99990.63;5011771;28;20181;-78
2021/07/12 10:32:20;;;;;;;;;;;24.70;63.50;;;22.09;65.27;99998.94;5012151;28;19971;-80
2021/07/12 10:34:48;;;;;;;;;;;24.60;63.80;;;22.11;64.82;99993.13;5012434;28;20451;-77
2021/07/12 10:37:27;;;;;;;;;;;24.60;64.30;;;22.05;64.92;99992.28;5011278;28;19922;-79
2021/07/12 10:40:18;;;;;;;;;;;24.50;62.80;;;22.05;64.25;99992.28;5012416;28;20408;-81
2021/07/12 10:42:53;;;;;;;;;;;24.40;63.60;;;22.05;65.06;99995.88;5010972;28;19953;-81
2021/07/12 10:45:35;;;;;;;;;;;24.40;63.60;;;22.04;65.21;99985.06;5010851;28;19921;-82
2021/07/12 10:48:07;;;;;;;;;;;24.40;64.30;;;22.03;64.08;99984.22;5011895;28;19929;-82
2021/07/12 10:50:45;;;;;;;;;;;24.40;63.90;;;22.05;66.12;99979.25;5012065;28;20390;-82
2021/07/12 10:53:43;;;;;;;;;;;24.50;65.60;;;22.10;65.76;99985.91;5012038;28;19925;-82
2021/07/12 10:56:16;;;;;;;;;;;24.60;65.40;;;22.17;67.53;99978.97;4931662;29;19923;-82
2021/07/12 10:59:00;;;;;;;;;;;24.70;66.70;;;22.20;65.62;99978.44;4996651;28;19929;-82
2021/07/12 11:01:39;;;;;;;;;;;24.70;64.40;;;22.20;64.20;99975.66;5011784;28;19980;-82
2021/07/12 11:04:32;;;;;;;;;;;24.70;63.70;;;22.17;63.63;99976.22;5011931;28;20604;-82
2021/07/12 11:07:00;;;;;;;;;;;24.60;63.10;;;22.18;64.34;99977.88;5010071;28;19925;-82
2021/07/12 11:09:54;;;;;;;;;;;24.60;63.60;;;22.19;64.64;99976.75;5011553;28;19925;-83
2021/07/12 11:12:28;;;;;;;;;;;24.60;65.10;;;22.18;66.69;99977.88;5011491;28;19991;-82